Hlavní strana
METAR-TAF:

METAR-TAF

Letiště :

Melilla, Španělsko

zeměpisná šířka: 35-17N, zeměpisná délka: 002-57W, výška: 47 m

Aktuální stav počasí

Zpráva byla vytvořena před 43 minutami, v 05:00 UTC
Východoseverovýchodní vítr 6 kt, proměnlivý mezi severoseverovýchodním a východním
Teplota 19°C
Vlhkost vzduchu 83%
Tlak 1014 hPa
Viditelnost 10 km a více
Zataženo ve výšce 1600 ft

METAR: GEML 300500Z AUTO 06006KT 020V100 9999 OVC016 19/16 Q1014

Čas: 07:43 (05:43 UTC)

Předpověď počasí

Zpráva byla vytvořena před 3 hodinami a 43 minutami, v 02:00 UTC
Předpověď platná od 30 v 03 UTC do 31 v 03 UTC
Východní vítr 10 kt
Viditelnost 10 km a více
Oblačno až skoro zataženo ve výšce 1200 ft
Pravděpodobnost 40% :
Dočasný
od 30 v 03 UTC do 30 v 08 UTC
Polojasno ve výšce 1200 ft
Změna
od 30 v 08 UTC do 30 v 10 UTC
Polojasno ve výšce 1500 ft

TAF: GEML 300200Z 3003/3103 09010KT 9999 BKN012 TX23/3013Z TN18/3005Z PROB40 TEMPO 3003/3008 SCT012 BECMG 3008/3010 SCT015

Stav a předpovědi počasí z více než 4 000 letišť (zprávy METAR a TAF).

Červené a žluté tečky na mapě představují dostupné meteorologické stanice.

Když kurzor umístíte na tečku, zobrazí se název stanice.

Pak kliknutím zobrazíte stav a předpověď počasí.

Chcete-li změnit mapu, kliknutím na zelené tlačítko se znaménkem +mapu přiblížíte, kliknutím na zelené tlačítko se znaménkem – mapu oddálíte a kliknutím na zelené šipky přejdete na sousední mapy.


METAR-TAF: